Time;durP1;ratioP1;P1;durP2;ratioP2;P2;SDS_P1;SDS_P2;PMS_P1;PMS_P2;Temp;Humidity;BMP_temperature;BMP_pressure;BME280_temperature;BME280_humidity;BME280_pressure;Samples;Min_cycle;Max_cycle;Signal;HPM_P1;HPM_P2
2022/01/17 00:02:04;;;;;;;4.45;2.10;;;;;;;;;;5052116;28;20049;-47
2022/01/17 00:04:30;;;;;;;3.53;2.10;;;;;;;;;;5052287;28;20025;-48
2022/01/17 00:06:56;;;;;;;2.80;2.03;;;;;;;;;;5052232;28;20033;-47
2022/01/17 00:09:22;;;;;;;2.60;2.10;;;;;;;;;;5052193;28;20020;-47
2022/01/17 00:11:50;;;;;;;3.28;2.28;;;;;;;;;;5052218;28;20051;-48
2022/01/17 00:14:21;;;;;;;3.05;2.30;;;;;;;;;;5052142;28;20464;-48
2022/01/17 00:17:02;;;;;;;4.25;2.35;;;;;;;;;;5052146;28;20029;-48
2022/01/17 00:19:37;;;;;;;3.45;2.10;;;;;;;;;;5051967;28;20030;-48
2022/01/17 00:22:03;;;;;;;3.30;1.95;;;;;;;;;;5052147;28;20108;-48
2022/01/17 00:24:29;;;;;;;3.70;2.00;;;;;;;;;;5051965;28;20100;-48
2022/01/17 00:26:55;;;;;;;3.80;2.03;;;;;;;;;;5051966;28;20075;-47
2022/01/17 00:29:21;;;;;;;5.28;2.10;;;;;;;;;;5052211;28;20021;-48
2022/01/17 00:31:47;;;;;;;2.45;2.08;;;;;;;;;;5054929;28;20086;-47
2022/01/17 00:34:13;;;;;;;3.03;1.80;;;;;;;;;;5056041;28;20383;-47
2022/01/17 00:36:39;;;;;;;2.70;1.70;;;;;;;;;;5056026;28;20159;-48
2022/01/17 00:39:05;;;;;;;3.60;1.67;;;;;;;;;;5055995;28;20057;-47
2022/01/17 00:41:31;;;;;;;4.57;1.80;;;;;;;;;;5055865;28;20040;-48
2022/01/17 00:43:57;;;;;;;2.50;2.03;;;;;;;;;;5055919;28;20464;-47
2022/01/17 00:46:23;;;;;;;3.58;1.70;;;;;;;;;;5055840;28;20033;-47
2022/01/17 00:48:51;;;;;;;3.33;2.00;;;;;;;;;;5056097;28;20029;-47
2022/01/17 00:51:17;;;;;;;2.72;1.73;;;;;;;;;;5055826;28;20109;-47
2022/01/17 00:53:43;;;;;;;2.33;1.65;;;;;;;;;;5055737;28;20043;-47
2022/01/17 00:56:09;;;;;;;3.63;1.98;;;;;;;;;;5055714;28;20480;-47
2022/01/17 00:58:35;;;;;;;2.55;1.77;;;;;;;;;;5055474;28;20036;-47
2022/01/17 01:01:01;;;;;;;2.75;1.63;;;;;;;;;;5055489;28;20114;-48
2022/01/17 01:03:27;;;;;;;2.17;1.50;;;;;;;;;;5055240;28;20053;-48
2022/01/17 01:05:53;;;;;;;4.00;1.50;;;;;;;;;;5055482;28;20079;-48
2022/01/17 01:08:19;;;;;;;3.03;1.63;;;;;;;;;;5055561;28;20052;-47
2022/01/17 01:10:45;;;;;;;3.67;1.58;;;;;;;;;;5055323;28;20064;-47
2022/01/17 01:13:11;;;;;;;2.35;1.45;;;;;;;;;;5055387;28;20104;-48
2022/01/17 01:18:18;;;;;;;2.85;1.80;;;15.60;91.70;;;;;;5055547;28;20029;-47
2022/01/17 01:28:41;;;;;;;2.75;1.63;;;;;;;;;;5055426;28;20024;-48
2022/01/17 01:31:13;;;;;;;3.10;1.48;;;;;;;;;;5055306;28;20395;-48
2022/01/17 01:33:43;;;;;;;2.28;1.63;;;;;;;;;;5054983;28;20029;-47
2022/01/17 01:36:16;;;;;;;2.60;1.73;;;;;;;;;;5055009;28;20051;-49
2022/01/17 01:38:43;;;;;;;2.33;1.60;;;;;;;;;;5054874;28;20483;-47
2022/01/17 01:41:09;;;;;;;3.45;1.48;;;;;;;;;;5055001;28;20072;-48
2022/01/17 01:43:35;;;;;;;2.25;1.23;;;;;;;;;;5053723;28;20028;-49
2022/01/17 01:46:02;;;;;;;2.67;1.38;;;;;;;;;;5054964;28;20028;-48
2022/01/17 01:48:30;;;;;;;4.80;1.73;;;15.50;92.10;;;;;;5054750;28;20071;-49
2022/01/17 01:50:57;;;;;;;2.30;1.50;;;;;;;;;;5054638;28;20033;-48
2022/01/17 01:53:23;;;;;;;3.17;1.73;;;;;;;;;;5054535;28;20029;-48
2022/01/17 01:55:51;;;;;;;2.80;1.58;;;15.50;92.00;;;;;;5054521;28;20497;-47
2022/01/17 01:58:17;;;;;;;2.15;1.42;;;;;;;;;;5054751;28;20448;-47
2022/01/17 02:00:43;;;;;;;1.65;1.30;;;;;;;;;;5054381;28;20072;-47
2022/01/17 02:03:09;;;;;;;3.28;1.55;;;;;;;;;;5054259;28;20129;-47
2022/01/17 02:05:35;;;;;;;4.93;1.80;;;;;;;;;;5054382;28;20115;-48
2022/01/17 02:08:01;;;;;;;2.33;1.40;;;;;;;;;;5054345;28;20079;-48
2022/01/17 02:10:27;;;;;;;2.33;1.52;;;;;;;;;;5054301;28;20057;-48
2022/01/17 02:12:53;;;;;;;2.80;1.30;;;;;;;;;;5054202;28;20029;-47
2022/01/17 02:15:19;;;;;;;3.30;1.30;;;;;;;;;;5054205;28;20033;-47
2022/01/17 02:17:53;;;;;;;2.20;1.40;;;15.40;90.60;;;;;;5054098;28;20036;-48
2022/01/17 02:20:21;;;;;;;3.08;1.65;;;15.40;92.00;;;;;;5054054;28;20041;-48
2022/01/17 02:22:51;;;;;;;3.83;1.63;;;15.40;90.50;;;;;;5054121;28;20017;-48
2022/01/17 02:25:17;;;;;;;4.32;1.20;;;;;;;;;;5054034;28;20025;-49
2022/01/17 02:27:45;;;;;;;1.88;1.25;;;;;;;;;;5053918;28;20100;-47
2022/01/17 02:30:12;;;;;;;3.25;1.40;;;15.30;92.00;;;;;;5053936;28;20064;-48
2022/01/17 02:32:38;;;;;;;1.50;1.23;;;;;;;;;;5053865;28;20104;-47
2022/01/17 02:35:19;;;;;;;1.88;1.10;;;15.30;88.20;;;;;;5053789;28;20033;-48
2022/01/17 02:37:45;;;;;;;2.70;1.17;;;;;;;;;;5053715;28;20096;-47
2022/01/17 02:40:13;;;;;;;2.78;1.35;;;15.10;92.20;;;;;;5053696;28;20037;-47
2022/01/17 02:42:39;;;;;;;1.75;1.20;;;;;;;;;;5053924;28;20052;-48
2022/01/17 02:45:19;;;;;;;2.65;1.15;;;15.30;92.20;;;;;;5053591;28;20167;-48
2022/01/17 02:47:45;;;;;;;2.05;1.10;;;;;;;;;;5053597;28;20399;-48
2022/01/17 02:50:11;;;;;;;2.35;1.25;;;;;;;;;;5053510;28;20025;-48
2022/01/17 02:52:37;;;;;;;2.08;0.95;;;;;;;;;;5052228;28;20017;-47
2022/01/17 02:55:03;;;;;;;1.13;0.85;;;;;;;;;;5053273;28;20029;-48
2022/01/17 02:57:33;;;;;;;2.03;1.00;;;15.30;88.40;;;;;;5053431;28;20028;-47
2022/01/17 02:59:59;;;;;;;2.80;1.10;;;;;;;;;;5053579;28;20032;-47
2022/01/17 03:02:25;;;;;;;2.15;1.08;;;;;;;;;;5053024;28;20131;-47
2022/01/17 03:04:51;;;;;;;2.70;0.98;;;;;;;;;;5053217;28;20417;-48
2022/01/17 03:07:17;;;;;;;2.20;1.13;;;;;;;;;;5053149;28;20040;-47
2022/01/17 03:09:57;;;;;;;2.17;1.17;;;;;;;;;;5053163;28;20021;-48
2022/01/17 03:12:23;;;;;;;1.02;0.82;;;;;;;;;;5053411;28;20036;-48
2022/01/17 03:14:49;;;;;;;1.98;0.90;;;;;;;;;;5053107;28;20029;-47
2022/01/17 03:17:15;;;;;;;1.58;0.90;;;;;;;;;;5052913;28;20033;-47
2022/01/17 03:19:41;;;;;;;2.70;0.90;;;;;;;;;;5052921;28;20028;-47
2022/01/17 03:22:07;;;;;;;1.25;0.77;;;;;;;;;;5052912;28;20033;-48
2022/01/17 03:24:33;;;;;;;1.67;1.13;;;;;;;;;;5052871;28;20029;-47
2022/01/17 03:26:59;;;;;;;1.58;0.77;;;;;;;;;;5051560;28;20033;-47
2022/01/17 03:29:25;;;;;;;2.65;1.10;;;;;;;;;;5052787;28;20039;-48
2022/01/17 03:31:51;;;;;;;1.25;0.95;;;;;;;;;;5052872;28;20057;-47
2022/01/17 03:34:17;;;;;;;1.75;1.00;;;;;;;;;;5052743;28;20031;-48
2022/01/17 03:36:44;;;;;;;2.50;1.05;;;;;;;;;;5053139;28;20391;-47
2022/01/17 03:39:10;;;;;;;4.40;1.00;;;;;;;;;;5052626;28;20025;-47
2022/01/17 03:41:36;;;;;;;2.75;1.15;;;;;;;;;;5052569;28;20044;-49
2022/01/17 03:44:02;;;;;;;2.88;0.93;;;;;;;;;;5052575;28;20021;-48
2022/01/17 03:46:28;;;;;;;2.08;0.82;;;;;;;;;;5052561;28;20035;-47
2022/01/17 03:48:54;;;;;;;2.08;0.90;;;;;;;;;;5052487;28;20472;-48
2022/01/17 03:51:20;;;;;;;2.50;1.33;;;;;;;;;;5052450;28;20060;-48
2022/01/17 03:53:46;;;;;;;1.52;1.20;;;;;;;;;;5052522;28;20021;-47
2022/01/17 03:56:12;;;;;;;3.38;0.98;;;;;;;;;;5052334;28;20040;-47
2022/01/17 03:58:38;;;;;;;2.38;0.82;;;;;;;;;;5052380;28;20028;-47
2022/01/17 04:01:04;;;;;;;2.15;0.88;;;;;;;;;;5052202;28;20041;-47
2022/01/17 04:03:31;;;;;;;1.95;0.90;;;;;;;;;;5052103;28;20045;-47
2022/01/17 04:05:57;;;;;;;2.80;1.00;;;;;;;;;;5051778;28;20037;-47
2022/01/17 04:08:23;;;;;;;2.03;1.20;;;;;;;;;;5052169;28;20029;-48
2022/01/17 04:10:49;;;;;;;2.65;1.00;;;;;;;;;;5052320;28;20112;-48
2022/01/17 04:13:15;;;;;;;2.58;1.33;;;;;;;;;;5052472;28;20394;-48
2022/01/17 04:15:42;;;;;;;1.17;0.95;;;;;;;;;;5052183;28;20037;-47
2022/01/17 04:18:09;;;;;;;1.10;0.90;;;15.00;92.30;;;;;;5052159;28;20120;-47
2022/01/17 04:20:35;;;;;;;2.15;1.00;;;;;;;;;;5052075;28;20044;-47
2022/01/17 04:23:06;;;;;;;2.45;1.20;;;14.80;92.50;;;;;;5052073;28;20028;-47
2022/01/17 04:25:32;;;;;;;1.52;0.80;;;;;;;;;;5052126;28;20032;-48
2022/01/17 04:27:59;;;;;;;2.30;0.90;;;;;;;;;;5052303;28;20029;-47
2022/01/17 04:30:25;;;;;;;3.25;1.05;;;;;;;;;;5051973;28;20033;-47
2022/01/17 04:32:51;;;;;;;2.65;1.23;;;;;;;;;;5052089;28;20052;-47
2022/01/17 04:35:22;;;;;;;1.50;1.00;;;14.90;92.50;;;;;;5051923;28;20361;-47
2022/01/17 04:37:55;;;;;;;2.17;0.93;;;14.80;89.00;;;;;;5051932;28;20029;-47
2022/01/17 04:40:21;;;;;;;1.58;0.70;;;;;;;;;;5052096;28;20025;-47
2022/01/17 04:42:49;;;;;;;1.80;0.93;;;;;;;;;;5051850;28;20025;-47
2022/01/17 04:45:16;;;;;;;1.60;0.77;;;;;;;;;;5051847;28;20096;-47
2022/01/17 04:47:45;;;;;;;2.03;0.98;;;14.80;92.30;;;;;;5052093;28;20033;-47
2022/01/17 04:50:16;;;;;;;4.10;1.20;;;14.80;92.20;;;;;;5051863;28;20383;-48
2022/01/17 04:52:42;;;;;;;2.88;1.23;;;;;;;;;;5052161;28;20025;-47
2022/01/17 04:55:10;;;;;;;2.15;1.00;;;14.80;92.40;;;;;;5051837;28;20029;-48
2022/01/17 04:57:38;;;;;;;1.20;0.75;;;14.80;90.90;;;;;;5051695;28;20025;-50
2022/01/17 05:00:07;;;;;;;3.92;1.25;;;;;;;;;;5051947;28;20035;-48
2022/01/17 05:06:33;;;;;;;1.73;1.10;;;14.80;89.10;;;;;;5038431;28;20430;-47
2022/01/17 05:08:59;;;;;;;2.40;1.02;;;;;;;;;;5031787;28;20360;-48
2022/01/17 05:11:29;;;;;;;3.38;0.75;;;;;;;;;;5031770;28;20033;-48
2022/01/17 05:13:55;;;;;;;1.73;0.98;;;;;;;;;;5031773;28;20083;-48
2022/01/17 05:16:24;;;;;;;2.47;1.02;;;;;;;;;;5031673;28;20475;-47
2022/01/17 05:21:34;;;;;;;1.50;0.68;;;;;;;;;;5035289;28;20080;-47
2022/01/17 05:24:00;;;;;;;2.08;1.10;;;;;;;;;;5035368;28;20442;-48
2022/01/17 05:26:26;;;;;;;2.80;1.35;;;;;;;;;;5035178;28;20120;-47
2022/01/17 05:28:52;;;;;;;4.00;1.10;;;;;;;;;;5035225;28;20041;-48
2022/01/17 05:31:18;;;;;;;2.08;1.02;;;;;;;;;;5035127;28;20030;-47
2022/01/17 05:33:44;;;;;;;3.05;1.13;;;;;;;;;;5035384;28;20113;-47
2022/01/17 05:36:10;;;;;;;2.58;1.30;;;;;;;;;;5035141;28;20369;-47
2022/01/17 05:38:36;;;;;;;1.75;1.10;;;;;;;;;;5035036;28;20033;-47
2022/01/17 05:41:02;;;;;;;2.45;1.27;;;;;;;;;;5034889;28;20041;-48
2022/01/17 05:43:28;;;;;;;2.35;0.95;;;;;;;;;;5034879;28;20026;-47
2022/01/17 05:45:54;;;;;;;1.92;0.95;;;;;;;;;;5034931;28;20080;-48
2022/01/17 05:48:20;;;;;;;2.65;1.30;;;;;;;;;;5034816;28;20067;-48
2022/01/17 05:50:46;;;;;;;1.83;0.93;;;;;;;;;;5034801;28;20029;-47
2022/01/17 05:53:12;;;;;;;3.65;1.60;;;;;;;;;;5034783;28;20052;-47
2022/01/17 05:55:39;;;;;;;3.80;1.35;;;;;;;;;;5035087;28;20087;-47
2022/01/17 05:58:05;;;;;;;3.28;1.30;;;;;;;;;;5034732;28;20082;-49
2022/01/17 06:00:31;;;;;;;5.65;1.50;;;;;;;;;;5034516;28;20105;-47
2022/01/17 06:02:57;;;;;;;2.85;1.38;;;;;;;;;;5034328;28;20541;-48
2022/01/17 06:05:22;;;;;;;2.05;1.27;;;;;;;;;;5034508;28;20395;-47
2022/01/17 06:07:48;;;;;;;3.05;1.20;;;;;;;;;;5034476;28;20131;-48
2022/01/17 06:10:14;;;;;;;2.10;1.05;;;;;;;;;;5034405;28;20030;-48
2022/01/17 06:12:40;;;;;;;1.75;1.30;;;;;;;;;;5034416;28;20028;-47
2022/01/17 06:15:07;;;;;;;2.28;1.05;;;;;;;;;;5034398;28;20075;-47
2022/01/17 06:17:33;;;;;;;1.85;1.20;;;;;;;;;;5034442;28;20028;-48
2022/01/17 06:19:59;;;;;;;2.03;1.25;;;;;;;;;;5034199;28;20033;-48
2022/01/17 06:22:24;;;;;;;1.55;1.00;;;;;;;;;;5034221;28;20037;-47
2022/01/17 06:24:50;;;;;;;2.30;1.13;;;;;;;;;;5034112;28;20033;-48
2022/01/17 06:27:17;;;;;;;3.03;1.40;;;;;;;;;;5034190;28;20120;-48
2022/01/17 06:29:43;;;;;;;1.17;0.90;;;;;;;;;;5033535;28;20068;-47
2022/01/17 06:32:09;;;;;;;3.33;1.25;;;;;;;;;;5034094;28;20124;-47
2022/01/17 06:34:35;;;;;;;2.45;1.13;;;;;;;;;;5033942;28;20029;-48
2022/01/17 06:37:01;;;;;;;2.53;1.40;;;;;;;;;;5034179;28;20029;-48
2022/01/17 06:39:27;;;;;;;3.28;1.40;;;;;;;;;;5034191;28;20434;-47
2022/01/17 06:41:53;;;;;;;3.05;1.45;;;;;;;;;;5033665;28;20116;-47
2022/01/17 06:44:19;;;;;;;2.85;1.20;;;;;;;;;;5033773;28;20028;-46
2022/01/17 06:46:45;;;;;;;3.38;1.60;;;;;;;;;;5033667;28;20113;-47
2022/01/17 06:49:11;;;;;;;2.75;1.40;;;;;;;;;;5033701;28;20030;-48
2022/01/17 06:51:37;;;;;;;2.55;1.30;;;;;;;;;;5033705;28;20034;-48
2022/01/17 06:54:03;;;;;;;2.65;1.20;;;;;;;;;;5033848;28;20045;-49
2022/01/17 06:56:29;;;;;;;2.55;1.27;;;;;;;;;;5033809;28;20107;-48
2022/01/17 06:58:55;;;;;;;2.30;1.10;;;;;;;;;;5033493;28;20470;-48
2022/01/17 07:01:21;;;;;;;1.55;1.10;;;15.60;90.80;;;;;;5033101;28;20041;-47
2022/01/17 07:03:48;;;;;;;2.42;1.30;;;;;;;;;;5033472;28;20033;-47
2022/01/17 07:06:14;;;;;;;2.13;1.20;;;;;;;;;;5033389;28;20037;-47
2022/01/17 07:08:40;;;;;;;3.63;2.05;;;;;;;;;;5033219;28;20124;-47
2022/01/17 07:11:06;;;;;;;3.70;1.60;;;;;;;;;;5033640;28;20029;-47
2022/01/17 07:13:33;;;;;;;3.67;1.65;;;;;;;;;;5033298;28;20033;-46
2022/01/17 07:15:59;;;;;;;3.72;1.58;;;;;;;;;;5033458;28;20073;-46
2022/01/17 07:18:25;;;;;;;5.15;1.70;;;;;;;;;;5033149;28;20034;-46
2022/01/17 07:20:51;;;;;;;4.18;1.20;;;;;;;;;;5033283;28;20403;-46
2022/01/17 07:23:17;;;;;;;2.33;1.30;;;;;;;;;;5033055;28;20029;-47
2022/01/17 07:25:43;;;;;;;2.28;1.40;;;;;;;;;;5033050;28;20103;-47
2022/01/17 07:28:09;;;;;;;2.20;1.35;;;15.70;92.50;;;;;;5033081;28;20022;-47
2022/01/17 07:30:36;;;;;;;4.00;1.60;;;;;;;;;;5033223;28;20055;-47
2022/01/17 07:33:04;;;;;;;3.05;1.50;;;15.80;92.20;;;;;;5033103;28;20113;-47
2022/01/17 07:35:31;;;;;;;2.95;1.27;;;;;;;;;;5032742;28;20112;-47
2022/01/17 07:37:57;;;;;;;2.63;1.13;;;;;;;;;;5032556;28;20053;-47
2022/01/17 07:40:23;;;;;;;3.55;1.45;;;;;;;;;;5031810;28;20064;-47
2022/01/17 07:42:49;;;;;;;3.25;1.38;;;;;;;;;;5032660;28;20101;-47
2022/01/17 07:45:17;;;;;;;2.53;1.15;;;;;;;;;;5032674;28;20104;-47
2022/01/17 07:50:18;;;;;;;2.60;1.65;;;15.90;91.90;;;;;;5032726;28;20048;-47
2022/01/17 07:52:44;;;;;;;2.15;1.40;;;;;;;;;;5032255;28;20024;-47
2022/01/17 07:55:10;;;;;;;4.60;1.50;;;15.90;90.90;;;;;;5032275;28;20484;-47
2022/01/17 07:57:38;;;;;;;2.75;1.30;;;15.90;92.10;;;;;;5032502;28;20109;-46
2022/01/17 08:00:06;;;;;;;2.72;1.23;;;16.00;92.30;;;;;;5032299;28;20087;-47
2022/01/17 08:02:33;;;;;;;3.65;1.20;;;;;;;;;;5032263;28;20120;-46
2022/01/17 08:04:59;;;;;;;4.28;1.80;;;;;;;;;;5032455;28;20464;-46
2022/01/17 08:07:25;;;;;;;3.72;1.40;;;;;;;;;;5032353;28;20040;-47
2022/01/17 08:09:51;;;;;;;7.38;1.55;;;;;;;;;;5032328;28;20026;-46
2022/01/17 08:12:17;;;;;;;3.72;1.45;;;;;;;;;;5032242;28;20033;-47
2022/01/17 08:14:43;;;;;;;6.88;1.38;;;;;;;;;;5032223;28;20065;-46
2022/01/17 08:17:10;;;;;;;4.50;1.55;;;;;;;;;;5032027;28;20029;-47
2022/01/17 08:19:36;;;;;;;3.72;1.23;;;;;;;;;;5032489;28;20030;-46
2022/01/17 08:22:04;;;;;;;3.50;1.15;;;16.10;92.30;;;;;;5032035;28;20045;-47
2022/01/17 08:24:30;;;;;;;5.47;1.60;;;;;;;;;;5032307;28;20275;-47
2022/01/17 08:26:57;;;;;;;3.20;1.20;;;16.10;90.90;;;;;;5032148;28;20040;-47
2022/01/17 08:29:25;;;;;;;3.72;1.33;;;;;;;;;;5032097;28;20057;-47
2022/01/17 08:31:51;;;;;;;1.55;1.00;;;;;;;;;;5032158;28;20036;-46
2022/01/17 08:34:17;;;;;;;4.25;1.65;;;;;;;;;;5032150;28;20037;-47
2022/01/17 08:36:44;;;;;;;4.20;1.30;;;;;;;;;;5032358;28;20430;-46
2022/01/17 08:39:10;;;;;;;6.18;1.42;;;;;;;;;;5032059;28;20029;-47
2022/01/17 08:41:37;;;;;;;4.72;1.52;;;;;;;;;;5032064;28;20484;-47
2022/01/17 08:44:03;;;;;;;4.63;2.28;;;;;;;;;;5031960;28;20084;-47
2022/01/17 08:46:29;;;;;;;3.30;1.60;;;;;;;;;;5032028;28;20050;-46
2022/01/17 08:48:55;;;;;;;4.55;1.10;;;;;;;;;;5031990;28;20061;-47
2022/01/17 08:51:21;;;;;;;3.67;1.13;;;;;;;;;;5032002;28;20086;-46
2022/01/17 08:53:47;;;;;;;3.97;1.42;;;;;;;;;;5035958;28;20480;-48
2022/01/17 08:56:13;;;;;;;3.30;1.15;;;;;;;;;;5035791;28;20391;-47
2022/01/17 08:58:39;;;;;;;5.93;1.83;;;;;;;;;;5035932;28;20036;-47
2022/01/17 09:01:05;;;;;;;3.88;1.27;;;;;;;;;;5035659;28;20041;-46
2022/01/17 09:03:31;;;;;;;4.00;1.20;;;;;;;;;;5035557;28;20053;-47
2022/01/17 09:05:57;;;;;;;4.75;1.35;;;;;;;;;;5035639;28;20065;-47
2022/01/17 09:08:23;;;;;;;5.18;1.38;;;;;;;;;;5035724;28;20095;-47
2022/01/17 09:10:51;;;;;;;5.65;1.42;;;;;;;;;;5035648;28;20483;-47
2022/01/17 09:13:18;;;;;;;3.10;1.27;;;;;;;;;;5035555;28;20028;-46
2022/01/17 09:15:45;;;;;;;2.85;1.13;;;;;;;;;;5035819;28;20036;-46
2022/01/17 09:18:14;;;;;;;4.50;1.45;;;;;;;;;;5035486;28;20045;-47
2022/01/17 09:20:40;;;;;;;3.75;1.30;;;;;;;;;;5035494;28;20391;-46
2022/01/17 09:23:06;;;;;;;3.92;1.50;;;;;;;;;;5035069;28;20087;-47
2022/01/17 09:25:33;;;;;;;4.88;1.40;;;;;;;;;;5034954;28;20037;-47
2022/01/17 09:27:59;;;;;;;2.17;1.17;;;;;;;;;;5035128;28;20059;-47
2022/01/17 09:30:25;;;;;;;4.72;1.77;;;;;;;;;;5035290;28;20022;-46
2022/01/17 09:32:51;;;;;;;3.08;1.27;;;;;;;;;;5035126;28;20057;-47
2022/01/17 09:35:17;;;;;;;2.20;1.42;;;;;;;;;;5035158;28;20064;-47
2022/01/17 09:37:43;;;;;;;3.25;1.08;;;;;;;;;;5035048;28;20057;-47
2022/01/17 09:40:10;;;;;;;2.47;1.40;;;15.90;92.30;;;;;;5035212;28;20037;-47
2022/01/17 09:42:37;;;;;;;3.83;1.52;;;;;;;;;;5035025;28;20501;-48
2022/01/17 09:45:11;;;;;;;2.70;1.15;;;16.00;88.50;;;;;;5034927;28;20025;-48
2022/01/17 09:47:38;;;;;;;4.10;1.23;;;;;;;;;;5034853;28;20030;-48
2022/01/17 09:50:09;;;;;;;4.63;1.48;;;16.10;92.20;;;;;;5034896;28;20364;-47
2022/01/17 09:52:35;;;;;;;3.33;1.23;;;;;;;;;;5035091;28;20021;-47
2022/01/17 09:55:11;;;;;;;2.33;1.20;;;16.10;88.00;;;;;;5034967;28;20459;-47
2022/01/17 09:57:44;;;;;;;3.63;1.50;;;16.10;88.40;;;;;;5035008;28;20044;-48
2022/01/17 10:00:12;;;;;;;4.57;1.15;;;16.10;92.10;;;;;;5034693;28;20476;-47
2022/01/17 10:02:39;;;;;;;4.80;1.50;;;;;;;;;;5034387;28;20120;-48
2022/01/17 10:05:08;;;;;;;3.38;1.20;;;;;;;;;;5033675;28;20030;-47
2022/01/17 10:08:04;;;;;;;2.42;1.20;;;15.90;88.50;;;;;;5034246;28;20030;-48
2022/01/17 10:10:57;;;;;;;3.95;1.20;;;16.00;88.30;;;;;;5034111;28;20108;-47
2022/01/17 10:13:41;;;;;;;2.08;1.27;;;16.00;88.20;;;;;;5034683;28;20029;-48
2022/01/17 10:16:11;;;;;;;5.50;1.30;;;16.00;88.20;;;;;;5034460;28;20112;-47
2022/01/17 10:18:37;;;;;;;;;;;15.90;92.60;;;;;;5035064;28;20426;-47
2022/01/17 10:21:12;;;;;;;2.38;0.90;;;15.90;92.10;;;;;;5034492;28;19913;-47
2022/01/17 10:24:01;;;;;;;5.95;1.98;;;;;;;;;;5034220;28;20062;-47
2022/01/17 10:34:54;;;;;;;2.42;1.15;;;;;;;;;;5034268;28;20028;-46
2022/01/17 10:37:22;;;;;;;2.58;1.23;;;;;;;;;;5034087;28;20022;-47
2022/01/17 10:39:53;;;;;;;5.60;1.63;;;15.80;88.80;;;;;;5033864;28;20557;-48
2022/01/17 10:42:35;;;;;;;4.15;1.20;;;15.80;88.80;;;;;;5033861;28;20034;-47
2022/01/17 10:45:08;;;;;;;6.30;1.42;;;15.80;89.30;;;;;;5034224;28;20021;-47
2022/01/17 10:47:42;;;;;;;4.95;1.35;;;15.70;91.60;;;;;;5034041;28;20364;-47
2022/01/17 10:50:25;;;;;;;11.73;1.40;;;15.80;89.80;;;;;;5034169;28;20022;-47
2022/01/17 10:52:53;;;;;;;6.80;1.95;;;15.80;92.80;;;;;;5034022;28;20479;-48
2022/01/17 10:55:19;;;;;;;2.90;1.08;;;;;;;;;;5033912;28;20017;-47
2022/01/17 10:57:48;;;;;;;5.13;1.60;;;15.70;92.80;;;;;;5033492;28;20476;-46
2022/01/17 11:00:17;;;;;;;5.53;1.90;;;15.70;92.90;;;;;;5033421;28;20033;-47
2022/01/17 11:02:47;;;;;;;8.48;1.80;;;15.70;92.90;;;;;;5033098;28;20069;-47
2022/01/17 11:05:14;;;;;;;6.03;1.90;;;;;;;;;;5033676;28;20494;-47
2022/01/17 11:07:44;;;;;;;4.65;1.27;;;15.60;90.10;;;;;;5033596;28;20033;-47
2022/01/17 11:10:26;;;;;;;4.50;1.73;;;15.60;90.00;;;;;;5033392;28;20060;-47
2022/01/17 11:12:53;;;;;;;6.75;1.75;;;;;;;;;;5033258;28;20431;-46
2022/01/17 11:15:19;;;;;;;3.95;1.38;;;15.60;92.00;;;;;;5032899;28;20073;-47
2022/01/17 11:17:49;;;;;;;5.35;1.88;;;;;;;;;;5033210;28;20022;-46
2022/01/17 11:20:16;;;;;;;4.88;1.63;;;;;;;;;;5033731;28;20037;-46
2022/01/17 11:22:43;;;;;;;3.95;1.38;;;;;;;;;;5033081;28;20044;-47
2022/01/17 11:25:15;;;;;;;3.00;1.23;;;15.60;92.50;;;;;;5033158;28;20383;-46
2022/01/17 11:27:41;;;;;;;3.75;1.48;;;;;;;;;;5033197;28;20060;-47
2022/01/17 11:30:08;;;;;;;4.03;1.70;;;15.70;92.60;;;;;;5033290;28;20098;-47
2022/01/17 11:32:34;;;;;;;6.35;1.75;;;;;;;;;;5032996;28;20048;-47
2022/01/17 11:35:03;;;;;;;5.90;1.85;;;;;;;;;;5032914;28;20033;-47
2022/01/17 11:37:53;;;;;;;5.30;1.77;;;16.20;91.80;;;;;;5032814;28;20029;-48
2022/01/17 11:40:27;;;;;;;3.50;1.40;;;15.80;89.40;;;;;;5032947;28;20044;-47
2022/01/17 11:42:54;;;;;;;3.92;1.15;;;;;;;;;;5032817;28;20026;-48
2022/01/17 11:45:22;;;;;;;4.10;1.45;;;15.90;89.00;;;;;;5032852;28;20069;-47
2022/01/17 11:48:15;;;;;;;4.60;1.25;;;15.90;88.90;;;;;;5032696;28;20128;-47
2022/01/17 11:50:43;;;;;;;5.80;1.35;;;15.90;92.40;;;;;;5032701;28;20117;-46
2022/01/17 11:53:11;;;;;;;4.20;1.40;;;15.80;89.00;;;;;;5032905;28;20026;-47
2022/01/17 11:55:42;;;;;;;5.28;1.70;;;16.00;88.90;;;;;;5032509;28;20111;-47
2022/01/17 11:58:49;;;;;;;5.32;1.20;;;16.00;88.60;;;;;;5032410;28;20534;-48
2022/01/17 12:01:20;;;;;;;4.00;1.30;;;16.20;92.30;;;;;;5029541;28;20053;-48
2022/01/17 12:03:56;;;;;;;5.93;1.73;;;16.00;92.40;;;;;;5032925;28;20038;-47
2022/01/17 12:06:33;;;;;;;4.35;1.20;;;16.10;92.60;;;;;;5032554;28;20040;-47
2022/01/17 12:09:22;;;;;;;6.82;1.60;;;16.10;89.00;;;;;;5032451;28;20026;-47
2022/01/17 12:12:09;;;;;;;4.95;1.27;;;16.00;92.50;;;;;;5032444;28;20099;-47
2022/01/17 12:14:37;;;;;;;3.97;1.60;;;16.00;92.50;;;;;;5031118;28;20029;-46
2022/01/17 12:17:23;;;;;;;5.00;1.45;;;16.00;89.20;;;;;;5032164;28;20029;-47
2022/01/17 12:20:09;;;;;;;4.25;1.38;;;16.00;89.30;;;;;;5032198;28;20151;-47
2022/01/17 12:22:43;;;;;;;2.47;1.30;;;15.90;89.30;;;;;;5032648;28;20177;-46
2022/01/17 12:25:31;;;;;;;2.72;1.30;;;15.90;89.30;;;;;;5032140;28;20029;-48
2022/01/17 12:28:03;;;;;;;4.75;1.33;;;15.90;89.40;;;;;;5037762;28;20025;-47
2022/01/17 12:30:45;;;;;;;3.97;1.50;;;15.80;89.20;;;;;;5038781;28;20036;-48
2022/01/17 12:33:13;;;;;;;5.07;1.30;;;15.80;92.50;;;;;;5039045;28;20025;-47
2022/01/17 12:35:48;;;;;;;7.93;1.98;;;15.80;89.00;;;;;;5038786;28;20037;-46
2022/01/17 12:38:37;;;;;;;6.05;1.92;;;15.70;92.60;;;;;;5038724;28;20032;-48
2022/01/17 12:41:03;;;;;;;6.38;1.27;;;15.70;92.50;;;;;;5038509;28;20109;-47
2022/01/17 12:43:34;;;;;;;5.45;1.40;;;15.60;89.00;;;;;;5038741;28;20124;-45
2022/01/17 12:46:03;;;;;;;5.88;1.60;;;15.60;92.60;;;;;;5038657;28;20029;-47
2022/01/17 12:48:32;;;;;;;6.70;1.63;;;15.70;92.60;;;;;;5038965;28;20181;-46
2022/01/17 12:51:03;;;;;;;3.30;1.38;;;15.60;92.10;;;;;;5038662;28;20040;-47
2022/01/17 12:53:29;;;;;;;6.07;1.88;;;;;;;;;;5038889;28;20022;-47
2022/01/17 12:56:01;;;;;;;4.45;1.40;;;15.60;89.10;;;;;;5038446;28;20032;-46
2022/01/17 12:58:35;;;;;;;4.90;1.40;;;15.60;89.10;;;;;;5038418;28;20044;-47
2022/01/17 13:01:04;;;;;;;8.02;1.77;;;15.60;92.60;;;;;;5038604;28;20110;-47
2022/01/17 13:03:34;;;;;;;5.70;1.73;;;15.60;92.50;;;;;;5038379;28;20491;-46
2022/01/17 13:06:00;;;;;;;;;;;;;;;;;;5038944;28;20071;-48
2022/01/17 13:08:27;;;;;;;5.13;1.60;;;15.90;91.10;;;;;;5038346;28;19905;-47
2022/01/17 13:10:54;;;;;;;5.82;1.67;;;;;;;;;;5038355;28;20033;-47
2022/01/17 13:13:21;;;;;;;5.22;1.55;;;;;;;;;;5038569;28;20036;-47
2022/01/17 13:16:00;;;;;;;5.40;1.52;;;16.50;87.40;;;;;;5038597;28;20051;-47
2022/01/17 13:18:28;;;;;;;5.03;1.52;;;16.60;91.60;;;;;;5038401;28;20029;-46
2022/01/17 13:20:54;;;;;;;7.18;1.70;;;;;;;;;;5038178;28;20037;-46
2022/01/17 13:23:30;;;;;;;5.13;1.55;;;;;;;;;;5038536;28;20049;-46
2022/01/17 13:25:56;;;;;;;6.50;1.77;;;;;;;;;;5038274;28;20404;-47
2022/01/17 13:28:22;;;;;;;4.18;1.30;;;;;;;;;;5037912;28;20033;-46
2022/01/17 13:30:48;;;;;;;4.47;1.33;;;;;;;;;;5038239;28;20405;-47
2022/01/17 13:33:14;;;;;;;6.38;1.50;;;17.20;89.30;;;;;;5037853;28;20538;-46
2022/01/17 13:35:43;;;;;;;7.47;2.03;;;;;;;;;;5037984;28;20021;-47
2022/01/17 13:38:09;;;;;;;6.25;1.52;;;;;;;;;;5036086;28;20057;-47
2022/01/17 13:40:37;;;;;;;5.07;1.58;;;17.00;90.70;;;;;;5034463;28;20080;-47
2022/01/17 13:43:04;;;;;;;6.25;1.58;;;;;;;;;;5034651;28;20517;-47
2022/01/17 13:45:39;;;;;;;5.82;2.13;;;17.20;85.20;;;;;;5034649;28;20112;-47
2022/01/17 13:48:16;;;;;;;8.57;2.17;;;17.20;90.80;;;;;;5034555;28;20017;-47
2022/01/17 13:50:56;;;;;;;3.67;1.25;;;17.30;84.60;;;;;;5034875;28;20052;-47
2022/01/17 13:53:24;;;;;;;4.13;1.60;;;17.40;90.70;;;;;;5034401;28;20040;-47
2022/01/17 13:55:52;;;;;;;6.40;1.63;;;17.50;87.80;;;;;;5034540;28;20052;-47
2022/01/17 13:58:19;;;;;;;4.38;1.45;;;;;;;;;;5034428;28;20455;-47
2022/01/17 14:00:50;;;;;;;3.05;1.42;;;17.60;90.60;;;;;;5034266;28;20129;-47
2022/01/17 14:03:18;;;;;;;7.40;1.67;;;17.60;90.70;;;;;;5034036;28;20061;-46
2022/01/17 14:05:45;;;;;;;6.47;1.40;;;;;;;;;;5034296;28;20388;-47
2022/01/17 14:08:16;;;;;;;4.60;1.77;;;17.70;90.40;;;;;;5034296;28;20546;-46
2022/01/17 14:11:07;;;;;;;5.32;1.23;;;17.70;84.50;;;;;;5034052;28;20057;-46
2022/01/17 14:13:43;;;;;;;4.00;1.35;;;17.70;84.70;;;;;;5034316;28;20526;-47
2022/01/17 14:16:31;;;;;;;4.30;1.20;;;18.00;85.00;;;;;;5034195;28;20129;-46
2022/01/17 14:19:09;;;;;;;4.10;1.35;;;17.60;90.50;;;;;;5033913;28;20096;-47
2022/01/17 14:21:40;;;;;;;4.03;1.20;;;17.50;90.70;;;;;;5034171;28;20041;-49
2022/01/17 14:24:05;;;;;;;5.47;1.20;;;;;;;;;;5034186;28;20418;-46
2022/01/17 14:26:32;;;;;;;4.75;1.65;;;;;;;;;;5034371;28;20021;-47
2022/01/17 14:28:58;;;;;;;3.92;1.15;;;;;;;;;;5034037;28;20025;-46
2022/01/17 14:31:24;;;;;;;4.35;1.20;;;;;;;;;;5033981;28;20034;-46
2022/01/17 14:33:53;;;;;;;5.53;1.30;;;;;;;;;;5033745;28;20036;-47
2022/01/17 14:36:19;;;;;;;6.22;1.63;;;;;;;;;;5033886;28;20029;-48
2022/01/17 14:38:53;;;;;;;6.10;1.55;;;17.50;85.40;;;;;;5033685;28;20025;-47
2022/01/17 14:41:21;;;;;;;5.10;1.77;;;;;;;;;;5033605;28;20045;-47